Wolverine, Michigan
Current Conditions -  °F | °C
As of 4:53 PM on Wednesday 28 Jan 2015 (Local Time) from KGLR Reporting Station
Overcast Overcast  
Wind Chill: 19°   Ceiling: 9500
Heat Index: 27°   Visibility: 10mi
Dew Point:   Wind: 7mph
Humidity: 47%   Direction: 190°S
Pressure: 30.11"   Gusts: NA
Location:  45.27°N, 84.6°W
Report Text: KGLR 282153Z AUTO 19006KT 10SM OVC095 M03/M13 A3011 RMK AO2 SLP226 T10281128
Loading
Personal Weather Stations






























Interactive Weather Map New forecast layout! Learn more

10-Day Weather Forecast

Advertisements
Track Severe Weather on mobile